Time;durP1;ratioP1;P1;durP2;ratioP2;P2;SDS_P1;SDS_P2;PMS_P1;PMS_P2;Temp;Humidity;BMP_temperature;BMP_pressure;BME280_temperature;BME280_humidity;BME280_pressure;Samples;Min_cycle;Max_cycle;Signal;HPM_P1;HPM_P2
2022/05/31 00:00:35;;;;;;;122.43;116.43;;;12.70;99.90;;;;;;5028427;28;20199;-71
2022/05/31 00:03:02;;;;;;;105.32;99.97;;;12.70;99.90;;;;;;5032269;28;20211;-71
2022/05/31 00:05:28;;;;;;;96.63;92.40;;;12.70;99.90;;;;;;5031090;28;20182;-72
2022/05/31 00:07:54;;;;;;;101.25;96.90;;;12.70;99.90;;;;;;5007772;28;20286;-72
2022/05/31 00:10:21;;;;;;;110.05;105.05;;;12.60;99.90;;;;;;5031321;28;20636;-72
2022/05/31 00:12:47;;;;;;;122.20;116.57;;;12.50;99.90;;;;;;5018043;28;20191;-71
2022/05/31 00:15:15;;;;;;;118.93;113.47;;;12.50;99.90;;;;;;5032176;28;20179;-71
2022/05/31 00:17:41;;;;;;;119.68;114.57;;;12.50;99.90;;;;;;5028997;28;20230;-70
2022/05/31 00:20:10;;;;;;;119.68;114.35;;;12.50;99.90;;;;;;5015247;28;20628;-71
2022/05/31 00:22:37;;;;;;;121.50;116.07;;;12.50;99.90;;;;;;5031868;28;20214;-71
2022/05/31 00:25:05;;;;;;;127.47;122.07;;;12.60;99.90;;;;;;5030515;28;20644;-71
2022/05/31 00:27:31;;;;;;;124.88;118.97;;;12.60;99.90;;;;;;5030511;28;20198;-71
2022/05/31 00:29:57;;;;;;;122.25;116.88;;;12.60;99.90;;;;;;5030679;28;20178;-72
2022/05/31 00:32:30;;;;;;;133.23;127.20;;;12.50;99.90;;;;;;5032226;28;20198;-72
2022/05/31 00:34:59;;;;;;;128.75;123.20;;;12.60;99.90;;;;;;5028361;28;20187;-72
2022/05/31 00:37:25;;;;;;;134.10;128.40;;;12.50;99.90;;;;;;5027611;28;20189;-71
2022/05/31 00:39:51;;;;;;;128.52;123.10;;;12.50;99.90;;;;;;5028612;28;20179;-71
2022/05/31 00:42:21;;;;;;;129.43;123.93;;;12.50;99.90;;;;;;5019154;28;20182;-71
2022/05/31 00:44:48;;;;;;;133.98;127.82;;;12.40;99.90;;;;;;5024942;28;20175;-71
2022/05/31 00:47:24;;;;;;;140.68;134.43;;;12.30;99.90;;;;;;5027674;28;20179;-71
2022/05/31 00:50:10;;;;;;;139.68;133.73;;;12.20;99.90;;;;;;5022432;28;20175;-71
2022/05/31 00:52:41;;;;;;;147.73;141.45;;;12.30;99.90;;;;;;5050664;28;20270;-71
2022/05/31 00:55:31;;;;;;;138.45;132.60;;;12.30;99.90;;;;;;5048510;28;20528;-71
2022/05/31 00:58:14;;;;;;;144.68;138.15;;;12.20;99.90;;;;;;5021414;28;20614;-71
2022/05/31 01:00:41;;;;;;;147.27;141.10;;;12.20;99.90;;;;;;5030642;28;20695;-71
2022/05/31 01:03:08;;;;;;;156.65;150.32;;;12.10;99.90;;;;;;5032932;28;20210;-70
2022/05/31 01:05:34;;;;;;;166.02;159.10;;;12.20;99.90;;;;;;5035686;28;20189;-71
2022/05/31 01:08:01;;;;;;;163.48;156.45;;;12.10;99.90;;;;;;5032545;28;20183;-71
2022/05/31 01:10:27;;;;;;;174.80;167.45;;;12.10;99.90;;;;;;5030631;28;20211;-71
2022/05/31 01:12:53;;;;;;;173.25;166.15;;;12.20;99.90;;;;;;5034452;28;20647;-71
2022/05/31 01:15:20;;;;;;;168.73;161.65;;;12.20;99.90;;;;;;5033819;28;20201;-72
2022/05/31 01:17:45;;;;;;;166.07;159.38;;;12.20;99.90;;;;;;5028428;28;20213;-71
2022/05/31 01:20:17;;;;;;;175.95;168.95;;;12.20;99.90;;;;;;5017728;28;20606;-72
2022/05/31 01:22:50;;;;;;;173.07;166.02;;;12.30;99.90;;;;;;5035610;28;20289;-71
2022/05/31 01:25:24;;;;;;;177.98;170.70;;;12.30;99.90;;;;;;5027522;28;20183;-69
2022/05/31 01:28:18;;;;;;;166.55;159.90;;;12.30;99.90;;;;;;5029545;28;20187;-70
2022/05/31 01:31:13;;;;;;;169.20;162.40;;;12.20;99.90;;;;;;5025184;28;20670;-70
2022/05/31 01:34:14;;;;;;;165.07;158.30;;;12.10;99.90;;;;;;5035130;28;20182;-70
2022/05/31 01:36:49;;;;;;;168.43;161.43;;;12.00;99.90;;;;;;5024553;28;20410;-70
2022/05/31 01:39:23;;;;;;;157.50;150.75;;;11.90;99.90;;;;;;5035094;28;20217;-70
2022/05/31 01:41:57;;;;;;;164.15;156.93;;;11.80;99.90;;;;;;5034377;28;20174;-71
2022/05/31 01:44:27;;;;;;;183.17;174.83;;;11.70;99.90;;;;;;5034860;28;20294;-70
2022/05/31 01:46:55;;;;;;;173.82;166.65;;;11.60;99.90;;;;;;5034900;28;20210;-70
2022/05/31 01:49:22;;;;;;;186.43;178.85;;;11.70;99.90;;;;;;5042059;28;20541;-70
2022/05/31 01:51:49;;;;;;;189.98;182.15;;;11.70;99.90;;;;;;5034710;28;20194;-70
2022/05/31 01:54:17;;;;;;;198.98;190.88;;;11.90;99.90;;;;;;5033361;28;20197;-70
2022/05/31 01:56:46;;;;;;;199.88;191.80;;;11.90;99.90;;;;;;5025878;28;20313;-70
2022/05/31 01:59:12;;;;;;;190.07;182.63;;;11.90;99.90;;;;;;5027650;28;20209;-70
2022/05/31 02:01:39;;;;;;;188.93;181.15;;;11.90;99.90;;;;;;5032464;28;20253;-69
2022/05/31 02:04:06;;;;;;;180.80;173.65;;;12.00;99.90;;;;;;5020852;28;20220;-71
2022/05/31 02:06:34;;;;;;;183.10;175.80;;;12.00;99.90;;;;;;5032054;28;20186;-70
2022/05/31 02:09:01;;;;;;;165.55;158.73;;;11.90;99.90;;;;;;5034203;28;20183;-69
2022/05/31 02:11:27;;;;;;;173.35;166.25;;;12.00;99.90;;;;;;5026475;28;20643;-70
2022/05/31 02:13:53;;;;;;;178.18;170.88;;;12.10;99.90;;;;;;5028635;28;20183;-70
2022/05/31 02:16:19;;;;;;;175.43;168.60;;;12.10;99.90;;;;;;5042841;28;20187;-71
2022/05/31 02:21:35;;;;;;;172.50;165.65;;;12.10;99.90;;;;;;5023508;28;20277;-71
2022/05/31 02:24:12;;;;;;;184.43;177.10;;;12.20;99.90;;;;;;5020166;28;20656;-70
2022/05/31 02:26:42;;;;;;;173.93;167.05;;;12.20;99.90;;;;;;5022875;28;20275;-71
2022/05/31 02:29:09;;;;;;;168.02;161.32;;;12.10;99.90;;;;;;5023756;28;20517;-71
2022/05/31 02:31:36;;;;;;;169.10;162.43;;;12.20;99.90;;;;;;5032750;28;20221;-70
2022/05/31 02:34:02;;;;;;;175.30;168.10;;;12.20;99.90;;;;;;5031220;28;20191;-71
2022/05/31 02:36:28;;;;;;;177.98;170.93;;;12.10;99.90;;;;;;5034019;28;20237;-71
2022/05/31 02:38:55;;;;;;;187.73;179.90;;;12.20;99.90;;;;;;5027379;28;20171;-71
2022/05/31 02:41:21;;;;;;;190.57;182.95;;;12.30;99.90;;;;;;5018410;28;20196;-71
2022/05/31 02:43:47;;;;;;;194.20;186.40;;;12.20;99.90;;;;;;5027248;28;20199;-71
2022/05/31 02:46:13;;;;;;;193.18;185.75;;;12.30;99.90;;;;;;5032976;28;20185;-71
2022/05/31 02:48:39;;;;;;;186.20;179.02;;;12.20;99.90;;;;;;5033883;28;20191;-71
2022/05/31 02:51:04;;;;;;;191.48;183.90;;;12.10;99.90;;;;;;5030515;28;20558;-71
2022/05/31 02:53:30;;;;;;;184.43;177.10;;;12.10;99.90;;;;;;5031999;28;20450;-71
2022/05/31 02:55:57;;;;;;;186.57;179.10;;;12.10;99.90;;;;;;5033236;28;20183;-71
2022/05/31 02:58:25;;;;;;;186.70;179.60;;;12.10;99.90;;;;;;5040028;28;20214;-71
2022/05/31 03:00:52;;;;;;;196.93;188.63;;;12.00;99.90;;;;;;5028941;28;20551;-71
2022/05/31 03:03:18;;;;;;;199.18;191.68;;;12.10;99.90;;;;;;5021403;28;20211;-71
2022/05/31 03:05:43;;;;;;;201.82;193.93;;;12.10;99.90;;;;;;5027211;28;20241;-71
2022/05/31 03:08:09;;;;;;;202.63;194.73;;;12.00;99.90;;;;;;5025691;28;20603;-71
2022/05/31 03:10:44;;;;;;;206.55;198.48;;;12.10;99.90;;;;;;5023324;28;20567;-71
2022/05/31 03:13:12;;;;;;;209.60;201.52;;;12.10;99.90;;;;;;5025563;28;20652;-71
2022/05/31 03:15:39;;;;;;;210.50;202.27;;;12.10;99.90;;;;;;5028968;28;20179;-71
2022/05/31 03:18:13;;;;;;;218.45;209.85;;;12.10;99.90;;;;;;5027087;28;20195;-71
2022/05/31 03:20:41;;;;;;;217.27;208.85;;;12.20;99.90;;;;;;5032450;28;20183;-71
2022/05/31 03:23:16;;;;;;;214.68;206.70;;;12.10;99.90;;;;;;5021891;28;20586;-71
2022/05/31 03:25:44;;;;;;;213.70;205.70;;;12.20;99.90;;;;;;5032557;28;20180;-71
2022/05/31 03:28:10;;;;;;;211.05;202.90;;;12.20;99.90;;;;;;5025161;28;20182;-71
2022/05/31 03:30:38;;;;;;;210.70;202.40;;;12.10;99.90;;;;;;5032308;28;20183;-71
2022/05/31 03:33:06;;;;;;;203.27;195.13;;;12.10;99.90;;;;;;5029174;28;20190;-71
2022/05/31 03:35:32;;;;;;;205.43;197.50;;;12.10;99.90;;;;;;5029936;28;20182;-71
2022/05/31 03:37:57;;;;;;;203.77;195.65;;;12.10;99.90;;;;;;5030189;28;20190;-74
2022/05/31 03:43:07;;;;;;;202.27;194.18;;;12.10;99.90;;;;;;5026643;28;20217;-72
2022/05/31 03:45:38;;;;;;;200.88;192.80;;;12.00;99.90;;;;;;5031948;28;20187;-71
2022/05/31 03:48:05;;;;;;;205.88;198.02;;;12.10;99.90;;;;;;5047453;28;20190;-71
2022/05/31 03:50:32;;;;;;;207.07;198.95;;;12.10;99.90;;;;;;5030680;28;20633;-71
2022/05/31 03:52:58;;;;;;;199.45;191.32;;;12.10;99.90;;;;;;5030775;28;20195;-71
2022/05/31 03:55:23;;;;;;;218.60;210.27;;;12.10;99.90;;;;;;5032293;28;20229;-70
2022/05/31 03:57:51;;;;;;;215.05;206.68;;;12.10;99.90;;;;;;5011265;28;20179;-70
2022/05/31 04:00:17;;;;;;;214.82;206.43;;;12.00;99.90;;;;;;5027071;28;20211;-71
2022/05/31 04:02:43;;;;;;;210.63;202.52;;;12.00;99.90;;;;;;5030454;28;20578;-71
2022/05/31 04:05:09;;;;;;;209.65;201.57;;;11.90;99.90;;;;;;5030665;28;20191;-70
2022/05/31 04:07:36;;;;;;;210.18;202.07;;;11.80;99.90;;;;;;5014370;28;20190;-70
2022/05/31 04:10:06;;;;;;;220.25;211.85;;;11.90;99.90;;;;;;5031773;28;20266;-70
2022/05/31 04:12:37;;;;;;;229.77;220.68;;;11.80;99.90;;;;;;5031231;28;20628;-70
2022/05/31 04:15:03;;;;;;;225.48;216.88;;;11.90;99.90;;;;;;5021683;28;20183;-70
2022/05/31 04:17:29;;;;;;;228.80;220.07;;;11.80;99.90;;;;;;5030939;28;20185;-70
2022/05/31 04:19:54;;;;;;;227.30;218.43;;;11.90;99.90;;;;;;5032108;28;20179;-70
2022/05/31 04:22:20;;;;;;;219.35;210.98;;;11.80;99.90;;;;;;5029642;28;20186;-71
2022/05/31 04:24:46;;;;;;;221.15;212.77;;;11.80;99.90;;;;;;5014989;28;20554;-70
2022/05/31 04:27:18;;;;;;;222.80;214.23;;;11.80;99.90;;;;;;5021014;28;20186;-70
2022/05/31 04:29:43;;;;;;;229.33;220.53;;;11.70;99.90;;;;;;5031132;28;20697;-70
2022/05/31 04:32:10;;;;;;;234.20;225.53;;;11.60;99.90;;;;;;5021748;28;20179;-70
2022/05/31 04:34:35;;;;;;;231.15;222.48;;;11.70;99.90;;;;;;5018339;28;20944;-70
2022/05/31 04:37:01;;;;;;;231.90;223.10;;;11.80;99.90;;;;;;5028644;28;20171;-70
2022/05/31 04:39:27;;;;;;;224.52;216.02;;;11.90;99.90;;;;;;5029072;28;20592;-71
2022/05/31 04:41:53;;;;;;;214.05;205.40;;;11.90;99.90;;;;;;5025551;28;20201;-70
2022/05/31 04:44:18;;;;;;;213.43;205.50;;;12.00;99.90;;;;;;5023951;28;20705;-70
2022/05/31 04:46:44;;;;;;;211.52;203.57;;;12.00;99.90;;;;;;5017105;28;20182;-70
2022/05/31 04:49:11;;;;;;;212.60;204.38;;;12.00;99.90;;;;;;5029289;28;20222;-70
2022/05/31 04:51:38;;;;;;;211.35;203.35;;;12.10;99.90;;;;;;5016939;28;20219;-70
2022/05/31 04:54:04;;;;;;;214.30;206.00;;;12.10;99.90;;;;;;5030351;28;20190;-70
2022/05/31 04:56:31;;;;;;;203.07;195.40;;;12.20;99.90;;;;;;5029090;28;20233;-70
2022/05/31 04:58:57;;;;;;;204.40;196.70;;;12.10;99.90;;;;;;5027107;28;20186;-71
2022/05/31 05:01:23;;;;;;;203.77;195.65;;;12.10;99.90;;;;;;5030346;28;20245;-70
2022/05/31 05:03:49;;;;;;;203.93;196.13;;;12.00;99.90;;;;;;5030816;28;20206;-71
2022/05/31 05:06:17;;;;;;;199.55;192.05;;;12.20;99.90;;;;;;5026596;28;20214;-70
2022/05/31 05:08:43;;;;;;;192.13;185.10;;;12.10;99.90;;;;;;5022452;28;20266;-70
2022/05/31 05:11:12;;;;;;;194.35;187.10;;;12.20;99.90;;;;;;5029857;28;20186;-70
2022/05/31 05:13:39;;;;;;;194.95;187.75;;;12.40;99.90;;;;;;5031111;28;20525;-70
2022/05/31 05:16:06;;;;;;;185.82;178.70;;;12.50;99.90;;;;;;5041804;28;20194;-70
2022/05/31 05:18:32;;;;;;;178.93;172.15;;;12.60;99.90;;;;;;5027548;28;20636;-71
2022/05/31 05:21:00;;;;;;;160.65;154.57;;;12.60;99.90;;;;;;5017436;28;20179;-70
2022/05/31 05:23:25;;;;;;;147.27;141.65;;;12.70;99.90;;;;;;5020293;28;20203;-71
2022/05/31 05:25:52;;;;;;;138.25;132.90;;;12.70;99.90;;;;;;5016263;28;20234;-71
2022/05/31 05:31:04;;;;;;;132.55;127.43;;;12.80;99.90;;;;;;5026636;28;20202;-70
2022/05/31 05:33:31;;;;;;;131.98;126.85;;;12.80;99.90;;;;;;5011163;28;20642;-70
2022/05/31 05:35:57;;;;;;;128.15;123.22;;;12.90;99.90;;;;;;5025795;28;20183;-70
2022/05/31 05:38:23;;;;;;;124.38;119.55;;;12.90;99.90;;;;;;5026215;28;20198;-70
2022/05/31 05:40:49;;;;;;;123.68;119.07;;;12.70;99.90;;;;;;5032121;28;20193;-71
2022/05/31 05:43:16;;;;;;;123.88;119.07;;;12.60;99.90;;;;;;5020584;28;20207;-69
2022/05/31 05:45:41;;;;;;;124.80;120.05;;;12.70;99.90;;;;;;5027782;28;20174;-71
2022/05/31 05:48:07;;;;;;;122.60;117.63;;;12.70;99.90;;;;;;5031119;28;20191;-69
2022/05/31 05:50:35;;;;;;;121.15;116.65;;;12.90;99.90;;;;;;5023156;28;20193;-71
2022/05/31 05:53:04;;;;;;;116.85;112.22;;;13.00;99.90;;;;;;5031651;28;20212;-72
2022/05/31 05:55:30;;;;;;;113.50;108.90;;;13.10;99.90;;;;;;5025100;28;20175;-72
2022/05/31 05:57:55;;;;;;;109.43;105.22;;;13.20;99.90;;;;;;5025636;28;20183;-69
2022/05/31 06:00:22;;;;;;;104.88;100.50;;;13.30;99.90;;;;;;5041610;28;20236;-70
2022/05/31 06:02:53;;;;;;;101.78;97.72;;;13.30;99.90;;;;;;5033046;28;20218;-71
2022/05/31 06:05:28;;;;;;;97.88;94.22;;;13.30;99.90;;;;;;5028051;28;20179;-70
2022/05/31 06:08:23;;;;;;;97.55;93.22;;;13.30;99.90;;;;;;5026892;28;20266;-69
2022/05/31 06:10:54;;;;;;;100.45;96.57;;;13.20;99.90;;;;;;5029291;28;20186;-70
2022/05/31 06:13:31;;;;;;;92.85;89.07;;;13.30;99.90;;;;;;5026880;28;20740;-70
2022/05/31 06:15:57;;;;;;;89.55;86.10;;;13.50;99.90;;;;;;5029100;28;20204;-71
2022/05/31 06:18:35;;;;;;;87.90;84.20;;;13.60;99.90;;;;;;5020873;28;20179;-70
2022/05/31 06:21:08;;;;;;;84.93;81.57;;;13.60;99.90;;;;;;5021866;28;20171;-72
2022/05/31 06:23:36;;;;;;;82.10;78.82;;;13.80;99.90;;;;;;5033904;28;20198;-71
2022/05/31 06:26:02;;;;;;;81.72;78.18;;;14.00;99.90;;;;;;5020522;28;20258;-71
2022/05/31 06:28:28;;;;;;;77.72;74.68;;;14.20;99.90;;;;;;5018135;28;20187;-72
2022/05/31 06:30:54;;;;;;;84.85;81.45;;;14.40;99.90;;;;;;5025537;28;20213;-72
2022/05/31 06:33:19;;;;;;;89.65;86.07;;;14.60;99.90;;;;;;5019871;28;20191;-71
2022/05/31 06:35:45;;;;;;;90.38;86.93;;;14.70;99.90;;;;;;5046752;28;20194;-71
2022/05/31 06:38:11;;;;;;;98.95;95.15;;;14.70;99.90;;;;;;5015033;28;20286;-71
2022/05/31 06:40:39;;;;;;;103.93;99.65;;;14.60;99.90;;;;;;5010886;28;20337;-72
2022/05/31 06:43:05;;;;;;;102.93;98.82;;;14.60;99.90;;;;;;5026743;28;20227;-71
2022/05/31 06:45:31;;;;;;;95.20;91.32;;;14.70;99.90;;;;;;5018221;28;20655;-71
2022/05/31 06:47:57;;;;;;;101.07;96.85;;;15.40;99.90;;;;;;5023365;28;20175;-73
2022/05/31 06:50:22;;;;;;;88.07;84.55;;;15.90;99.90;;;;;;5012726;28;20544;-73
2022/05/31 06:58:16;;;;;;;145.75;140.23;;;18.20;99.90;;;;;;5033370;28;20197;-72
2022/05/31 07:00:42;;;;;;;154.23;148.50;;;18.80;99.90;;;;;;5030926;28;20202;-73
2022/05/31 07:03:08;;;;;;;162.60;156.55;;;19.50;99.90;;;;;;5046825;28;20211;-73
2022/05/31 07:05:34;;;;;;;200.35;192.52;;;20.30;99.90;;;;;;5030475;28;20194;-73
2022/05/31 07:07:59;;;;;;;208.43;200.68;;;21.00;99.90;;;;;;5029002;28;20178;-72
2022/05/31 07:10:25;;;;;;;253.55;244.38;;;21.20;99.90;;;;;;5027498;28;20590;-73
2022/05/31 07:12:50;;;;;;;247.02;237.77;;;21.80;99.90;;;;;;5026594;28;20191;-72
2022/05/31 07:15:17;;;;;;;225.43;217.15;;;22.20;99.90;;;;;;5028193;28;20648;-73
2022/05/31 07:17:44;;;;;;;254.90;245.45;;;22.80;99.90;;;;;;5019485;28;20207;-73
2022/05/31 07:20:10;;;;;;;331.90;319.55;;;24.10;99.90;;;;;;5007771;28;20188;-73
2022/05/31 07:22:37;;;;;;;1999.90;999.90;;;26.20;99.90;;;;;;5028931;28;20185;-73
2022/05/31 07:25:04;;;;;;;1999.90;999.90;;;28.00;99.90;;;;;;5030214;28;20193;-73
2022/05/31 07:27:30;;;;;;;1999.90;999.90;;;28.70;99.90;;;;;;5015828;28;20182;-68
2022/05/31 07:29:56;;;;;;;1999.90;999.90;;;28.20;99.90;;;;;;5018773;28;20179;-71
2022/05/31 07:32:21;;;;;;;1999.90;999.90;;;27.40;99.90;;;;;;5020776;28;20183;-72
2022/05/31 07:34:49;;;;;;;1999.90;999.90;;;27.10;99.90;;;;;;5015994;28;20264;-73
2022/05/31 07:37:14;;;;;;;1999.90;999.90;;;27.10;99.90;;;;;;5019312;28;20652;-74
2022/05/31 07:39:40;;;;;;;1999.90;999.90;;;27.40;99.90;;;;;;5042514;28;20192;-71
2022/05/31 07:42:06;;;;;;;1999.90;999.90;;;28.30;99.90;;;;;;5030898;28;20188;-69
2022/05/31 07:44:32;;;;;;;1999.90;999.90;;;27.90;99.90;;;;;;5031217;28;20205;-74
2022/05/31 07:47:00;;;;;;;1999.90;999.90;;;27.80;99.90;;;;;;5026769;28;20182;-73
2022/05/31 07:49:26;;;;;;;1999.90;999.90;;;28.10;99.90;;;;;;5029323;28;20547;-72
2022/05/31 07:51:52;;;;;;;1999.90;999.90;;;28.90;99.90;;;;;;5033767;28;20166;-74
2022/05/31 07:54:18;;;;;;;1999.90;999.90;;;29.90;99.90;;;;;;5031255;28;20251;-72
2022/05/31 07:56:44;;;;;;;1999.90;999.90;;;29.90;99.90;;;;;;5024210;28;20178;-74
2022/05/31 07:59:09;;;;;;;1999.90;999.90;;;30.40;99.90;;;;;;5026750;28;20223;-72
2022/05/31 08:01:35;;;;;;;1999.90;999.90;;;30.60;99.90;;;;;;5030196;28;20245;-72
2022/05/31 08:04:01;;;;;;;1999.90;999.90;;;31.20;99.90;;;;;;5020267;28;20221;-73
2022/05/31 08:06:32;;;;;;;1999.90;999.90;;;31.50;99.90;;;;;;5029600;28;20186;-73
2022/05/31 08:08:57;;;;;;;1999.90;999.90;;;32.00;99.90;;;;;;5024351;28;20647;-75
2022/05/31 08:11:29;;;;;;;1999.90;999.90;;;32.00;99.80;;;;;;5026689;28;20181;-73
2022/05/31 08:13:56;;;;;;;1999.90;999.90;;;32.70;99.80;;;;;;5025019;28;20258;-73
2022/05/31 08:16:24;;;;;;;1999.90;999.90;;;32.70;99.10;;;;;;5024295;28;20188;-74
2022/05/31 08:18:52;;;;;;;1999.90;999.90;;;32.80;99.20;;;;;;5016495;28;20524;-75
2022/05/31 08:21:26;;;;;;;1999.90;999.90;;;32.60;99.00;;;;;;5033249;28;20181;-75
2022/05/31 08:23:52;;;;;;;1999.90;999.90;;;32.70;99.20;;;;;;5033685;28;20669;-75
2022/05/31 08:26:19;;;;;;;1999.90;999.90;;;32.60;98.20;;;;;;5030989;28;20209;-76
2022/05/31 08:28:45;;;;;;;1999.90;999.90;;;32.70;98.30;;;;;;5031150;28;20189;-76
2022/05/31 08:31:12;;;;;;;1999.90;999.90;;;32.40;97.30;;;;;;5033039;28;20185;-76
2022/05/31 08:33:41;;;;;;;1999.90;999.90;;;32.70;97.40;;;;;;5038358;28;20182;-76
2022/05/31 08:36:08;;;;;;;1999.90;999.90;;;32.80;96.90;;;;;;5044081;28;20182;-77
2022/05/31 08:38:34;;;;;;;1999.90;999.90;;;32.50;96.60;;;;;;5031089;28;20263;-76
2022/05/31 08:41:24;;;;;;;1999.90;999.90;;;31.20;96.90;;;;;;5021973;28;20185;-75
2022/05/31 08:43:50;;;;;;;1999.90;999.90;;;31.60;96.60;;;;;;5024225;28;20204;-73
2022/05/31 08:46:26;;;;;;;1999.90;999.90;;;32.20;97.10;;;;;;5029492;28;20185;-74
2022/05/31 08:48:57;;;;;;;1999.90;999.90;;;32.30;95.70;;;;;;5036806;28;20741;-74
2022/05/31 08:51:52;;;;;;;1999.90;999.90;;;31.70;96.50;;;;;;5047455;28;20181;-73
2022/05/31 08:57:13;;;;;;;1999.90;999.90;;;31.80;95.90;;;;;;5029770;28;20500;-74
2022/05/31 09:00:11;;;;;;;1999.90;999.90;;;32.20;95.00;;;;;;5031945;28;20178;-77
2022/05/31 09:02:52;;;;;;;1999.90;999.90;;;32.40;94.10;;;;;;5046050;28;20191;-76
2022/05/31 09:05:29;;;;;;;1999.90;999.90;;;32.50;94.80;;;;;;5022999;28;20174;-74
2022/05/31 09:08:07;;;;;;;1999.90;999.90;;;31.70;94.30;;;;;;5025452;28;20182;-73
2022/05/31 09:10:51;;;;;;;1999.90;999.90;;;31.70;93.50;;;;;;5025957;28;20174;-74
2022/05/31 09:13:34;;;;;;;1999.90;999.90;;;31.80;93.20;;;;;;5015712;28;20182;-71
2022/05/31 09:16:10;;;;;;;1999.90;999.90;;;32.30;94.40;;;;;;5031542;28;20171;-72
2022/05/31 09:18:42;;;;;;;1999.90;999.90;;;32.70;92.60;;;;;;5034789;28;20257;-72
2022/05/31 09:21:22;;;;;;;1999.90;999.90;;;32.90;93.70;;;;;;5034196;28;20184;-72
2022/05/31 09:23:48;;;;;;;1999.90;999.90;;;32.80;94.10;;;;;;5027051;28;20198;-71
2022/05/31 09:26:25;;;;;;;1999.90;999.90;;;32.30;94.10;;;;;;5034646;28;20270;-72
2022/05/31 09:28:57;;;;;;;1999.90;999.90;;;32.00;93.60;;;;;;5029209;28;20169;-72
2022/05/31 09:31:37;;;;;;;1999.90;999.90;;;31.50;93.90;;;;;;5034316;28;20514;-71
2022/05/31 09:34:35;;;;;;;1999.90;999.90;;;30.60;93.80;;;;;;5027830;28;20639;-72
2022/05/31 09:37:25;;;;;;;1999.90;999.90;;;29.40;95.30;;;;;;5020990;28;20174;-73
2022/05/31 09:40:28;;;;;;;1999.90;999.90;;;28.30;96.10;;;;;;5019866;28;20282;-73
2022/05/31 09:43:09;;;;;;;1999.90;999.90;;;27.30;96.50;;;;;;5019651;28;20222;-75
2022/05/31 09:45:40;;;;;;;1999.90;999.90;;;26.40;97.00;;;;;;5026805;28;20228;-73
2022/05/31 09:48:06;;;;;;;1999.90;999.90;;;26.30;96.50;;;;;;5033496;28;20186;-73
2022/05/31 09:50:32;;;;;;;1999.90;999.90;;;25.10;96.10;;;;;;5035221;28;20526;-73
2022/05/31 09:52:58;;;;;;;1999.90;999.90;;;24.40;97.50;;;;;;5027865;28;20194;-73
2022/05/31 09:58:36;;;;;;;1999.90;999.90;;;23.80;98.80;;;;;;5033645;28;20260;-81
2022/05/31 10:01:14;;;;;;;1999.90;999.90;;;23.80;98.00;;;;;;5027154;28;20683;-83
2022/05/31 10:03:48;;;;;;;1999.90;999.90;;;23.30;98.30;;;;;;5030601;28;20201;-84
2022/05/31 10:06:19;;;;;;;1999.90;999.90;;;22.60;98.20;;;;;;5032711;28;20182;-82
2022/05/31 10:08:51;;;;;;;1999.90;999.90;;;22.50;99.40;;;;;;5041979;28;20167;-79
2022/05/31 10:11:31;;;;;;;1999.90;999.90;;;22.40;99.90;;;;;;5030531;28;20225;-81
2022/05/31 10:14:15;;;;;;;1999.90;999.90;;;22.40;99.40;;;;;;5020010;28;20181;-76
2022/05/31 10:16:42;;;;;;;1999.90;999.90;;;22.70;98.90;;;;;;5039696;28;20183;-81
2022/05/31 10:19:21;;;;;;;1999.90;999.90;;;23.00;99.30;;;;;;5028874;28;20186;-81
2022/05/31 10:21:47;;;;;;;1999.90;999.90;;;23.00;98.60;;;;;;5033141;28;20182;-80
2022/05/31 10:24:27;;;;;;;1999.90;999.90;;;23.20;98.30;;;;;;5031525;28;20214;-80
2022/05/31 10:27:18;;;;;;;1999.90;999.90;;;23.30;97.90;;;;;;5027221;28;20225;-79
2022/05/31 10:29:52;;;;;;;1414.05;883.25;;;22.70;99.10;;;;;;5032145;28;20273;-80
2022/05/31 10:32:33;;;;;;;1999.90;999.90;;;22.50;99.30;;;;;;5031256;28;20270;-76
2022/05/31 10:35:09;;;;;;;1999.90;999.90;;;22.60;98.80;;;;;;5019942;28;20225;-76
2022/05/31 10:37:35;;;;;;;1999.90;999.90;;;22.80;98.20;;;;;;5026907;28;20610;-76
2022/05/31 10:40:11;;;;;;;1999.90;999.90;;;22.90;97.40;;;;;;5016191;28;20179;-77
2022/05/31 10:42:42;;;;;;;1999.90;999.90;;;22.80;97.50;;;;;;5024438;28;20178;-76
2022/05/31 10:45:15;;;;;;;1999.90;999.90;;;23.00;97.80;;;;;;5015927;28;20541;-76
2022/05/31 10:47:40;;;;;;;1999.90;999.90;;;23.00;97.00;;;;;;5032350;28;20190;-76
2022/05/31 10:50:08;;;;;;;1999.90;999.90;;;22.80;96.90;;;;;;5023737;28;20541;-76
2022/05/31 10:53:33;;;;;;;1999.90;999.90;;;22.50;97.30;;;;;;5032343;28;20549;-76
2022/05/31 10:56:11;;;;;;;1999.90;999.90;;;22.50;97.80;;;;;;5029954;28;20585;-76
2022/05/31 10:58:59;;;;;;;1999.90;999.90;;;22.30;97.40;;;;;;5032600;28;20182;-76
2022/05/31 11:01:36;;;;;;;1999.90;999.90;;;22.20;97.10;;;;;;5032268;28;20203;-75
2022/05/31 11:04:32;;;;;;;1999.90;999.90;;;22.20;97.00;;;;;;5045268;28;20199;-74
2022/05/31 11:07:18;;;;;;;922.13;857.13;;;22.50;98.20;;;;;;5028143;28;20175;-74
2022/05/31 11:12:49;;;;;;;1999.90;999.90;;;22.70;97.50;;;;;;5026133;28;20225;-74
2022/05/31 11:15:41;;;;;;;1999.90;999.90;;;22.60;97.80;;;;;;5023883;28;20187;-77
2022/05/31 11:18:10;;;;;;;1999.90;999.90;;;22.60;97.80;;;;;;5043591;28;20541;-79
2022/05/31 11:21:13;;;;;;;1999.90;999.90;;;22.60;97.00;;;;;;5032428;28;20254;-79
2022/05/31 11:23:45;;;;;;;1999.90;999.90;;;22.20;97.20;;;;;;5037147;28;20207;-75
2022/05/31 11:26:33;;;;;;;1999.90;999.90;;;22.10;97.60;;;;;;5033847;28;20225;-76
2022/05/31 11:29:41;;;;;;;1999.90;999.90;;;22.30;97.80;;;;;;5029079;28;20182;-76
2022/05/31 11:32:17;;;;;;;1999.90;999.90;;;22.50;97.80;;;;;;5022443;28;20659;-75
2022/05/31 11:35:06;;;;;;;1999.90;999.90;;;22.70;96.80;;;;;;5022815;28;20579;-76
2022/05/31 11:37:39;;;;;;;1999.90;999.90;;;23.00;97.00;;;;;;5026326;28;20187;-76
2022/05/31 11:40:21;;;;;;;1999.90;999.90;;;23.10;96.70;;;;;;5021742;28;20208;-77
2022/05/31 11:42:53;;;;;;;1999.90;999.90;;;23.10;96.90;;;;;;5027053;28;20260;-77
2022/05/31 11:45:52;;;;;;;1999.90;999.90;;;23.10;96.60;;;;;;5030025;28;20178;-77
2022/05/31 11:48:38;;;;;;;1999.90;999.90;;;23.20;97.30;;;;;;5042859;28;20595;-77
2022/05/31 11:51:23;;;;;;;1999.90;999.90;;;23.40;98.10;;;;;;5036382;28;20189;-77
2022/05/31 11:54:37;;;;;;;1999.90;999.90;;;23.60;98.00;;;;;;5022119;28;20217;-77
2022/05/31 11:57:31;;;;;;;1999.90;999.90;;;23.70;97.50;;;;;;5024957;28;20190;-77
2022/05/31 12:00:09;;;;;;;1999.90;999.90;;;23.90;96.70;;;;;;5016635;28;20594;-76
2022/05/31 12:02:40;;;;;;;1999.90;999.90;;;24.10;96.10;;;;;;5023002;28;20174;-76
2022/05/31 12:05:18;;;;;;;1999.90;999.90;;;23.80;96.00;;;;;;5027630;28;20277;-75
2022/05/31 12:07:52;;;;;;;1999.90;999.90;;;23.90;96.50;;;;;;5025559;28;20261;-75
2022/05/31 12:10:25;;;;;;;1999.90;999.90;;;23.90;96.50;;;;;;5019774;28;20182;-76
2022/05/31 12:12:54;;;;;;;1999.90;999.90;;;23.80;95.80;;;;;;5024389;28;20608;-77
2022/05/31 12:15:28;;;;;;;1999.90;999.90;;;23.90;95.10;;;;;;5017600;28;20665;-76
2022/05/31 12:17:56;;;;;;;1999.90;999.90;;;23.60;96.30;;;;;;5015812;28;20258;-77
2022/05/31 12:20:23;;;;;;;1999.90;999.90;;;23.40;96.50;;;;;;5030396;28;20179;-77
2022/05/31 12:23:21;;;;;;;1999.90;999.90;;;23.40;96.40;;;;;;5046322;28;20178;-77
2022/05/31 12:26:00;;;;;;;1999.90;999.90;;;23.60;96.90;;;;;;5026687;28;20197;-77
2022/05/31 12:28:46;;;;;;;1999.90;999.90;;;23.70;95.30;;;;;;5013172;28;20179;-78
2022/05/31 12:31:20;;;;;;;1999.90;999.90;;;24.00;94.70;;;;;;5025601;28;20198;-76
2022/05/31 12:33:48;;;;;;;1999.90;999.90;;;24.30;96.40;;;;;;5024007;28;20218;-74
2022/05/31 12:36:17;;;;;;;1999.90;999.90;;;24.40;95.20;;;;;;5015690;28;20209;-75
2022/05/31 12:39:23;;;;;;;1999.90;999.90;;;24.10;95.20;;;;;;5030174;28;20533;-76
2022/05/31 12:41:51;;;;;;;1999.90;999.90;;;23.80;95.00;;;;;;5028438;28;20197;-75
2022/05/31 12:44:32;;;;;;;1999.90;999.90;;;24.00;96.00;;;;;;5017019;28;20197;-74
2022/05/31 12:47:26;;;;;;;1999.90;999.90;;;24.00;95.50;;;;;;5025295;28;20171;-75
2022/05/31 12:49:55;;;;;;;1999.90;999.90;;;24.10;95.60;;;;;;5021358;28;20236;-75